sensor_id;sensor_type;location;lat;lon;timestamp;temperature;humidity
69324;DHT22;56470;47.350;8.718;2023-04-30T00:02:03;16.29;62.62
69324;DHT22;56470;47.350;8.718;2023-04-30T00:04:28;16.32;62.61
69324;DHT22;56470;47.350;8.718;2023-04-30T00:06:54;16.29;62.61
69324;DHT22;56470;47.350;8.718;2023-04-30T00:09:19;16.26;62.63
69324;DHT22;56470;47.350;8.718;2023-04-30T00:11:45;16.25;62.74
69324;DHT22;56470;47.350;8.718;2023-04-30T00:14:10;16.25;62.73
69324;DHT22;56470;47.350;8.718;2023-04-30T00:16:35;16.25;62.77
69324;DHT22;56470;47.350;8.718;2023-04-30T00:19:01;16.20;62.79
69324;DHT22;56470;47.350;8.718;2023-04-30T00:21:26;16.15;62.94
69324;DHT22;56470;47.350;8.718;2023-04-30T00:23:51;16.06;63.02
69324;DHT22;56470;47.350;8.718;2023-04-30T00:26:17;16.05;63.26
69324;DHT22;56470;47.350;8.718;2023-04-30T00:28:42;16.09;63.36
69324;DHT22;56470;47.350;8.718;2023-04-30T00:31:07;16.12;63.31
69324;DHT22;56470;47.350;8.718;2023-04-30T00:33:33;16.16;63.36
69324;DHT22;56470;47.350;8.718;2023-04-30T00:35:59;16.19;63.33
69324;DHT22;56470;47.350;8.718;2023-04-30T00:38:25;16.22;63.35
69324;DHT22;56470;47.350;8.718;2023-04-30T00:40:51;16.22;63.36
69324;DHT22;56470;47.350;8.718;2023-04-30T00:43:16;16.27;63.33
69324;DHT22;56470;47.350;8.718;2023-04-30T00:45:42;16.26;63.33
69324;DHT22;56470;47.350;8.718;2023-04-30T00:48:07;16.22;63.52
69324;DHT22;56470;47.350;8.718;2023-04-30T00:50:35;16.25;63.57
69324;DHT22;56470;47.350;8.718;2023-04-30T00:53:00;16.29;63.49
69324;DHT22;56470;47.350;8.718;2023-04-30T00:55:26;16.23;63.20
69324;DHT22;56470;47.350;8.718;2023-04-30T00:57:51;16.20;63.43
69324;DHT22;56470;47.350;8.718;2023-04-30T01:00:17;16.16;63.41
69324;DHT22;56470;47.350;8.718;2023-04-30T01:02:42;16.18;63.57
69324;DHT22;56470;47.350;8.718;2023-04-30T01:05:08;16.20;63.50
69324;DHT22;56470;47.350;8.718;2023-04-30T01:07:34;16.18;63.42
69324;DHT22;56470;47.350;8.718;2023-04-30T01:10:00;16.13;63.31
69324;DHT22;56470;47.350;8.718;2023-04-30T01:12:46;16.06;63.63
69324;DHT22;56470;47.350;8.718;2023-04-30T01:20:14;16.05;63.47
69324;DHT22;56470;47.350;8.718;2023-04-30T01:22:50;16.01;63.40
69324;DHT22;56470;47.350;8.718;2023-04-30T01:28:02;15.97;63.54
69324;DHT22;56470;47.350;8.718;2023-04-30T01:30:30;15.98;63.51
69324;DHT22;56470;47.350;8.718;2023-04-30T01:32:56;15.95;63.43
69324;DHT22;56470;47.350;8.718;2023-04-30T01:35:32;15.88;63.32
69324;DHT22;56470;47.350;8.718;2023-04-30T01:40:39;15.81;63.40
69324;DHT22;56470;47.350;8.718;2023-04-30T01:51:43;15.57;63.39
69324;DHT22;56470;47.350;8.718;2023-04-30T01:54:18;15.37;63.60
69324;DHT22;56470;47.350;8.718;2023-04-30T01:56:55;15.28;64.04
69324;DHT22;56470;47.350;8.718;2023-04-30T01:59:27;15.28;64.37
69324;DHT22;56470;47.350;8.718;2023-04-30T02:01:52;15.36;64.42
69324;DHT22;56470;47.350;8.718;2023-04-30T02:04:18;15.18;64.35
69324;DHT22;56470;47.350;8.718;2023-04-30T02:06:43;15.08;64.45
69324;DHT22;56470;47.350;8.718;2023-04-30T02:09:08;15.01;64.79
69324;DHT22;56470;47.350;8.718;2023-04-30T02:11:34;15.02;64.81
69324;DHT22;56470;47.350;8.718;2023-04-30T02:14:00;14.94;65.02
69324;DHT22;56470;47.350;8.718;2023-04-30T02:16:25;14.91;65.03
69324;DHT22;56470;47.350;8.718;2023-04-30T02:18:50;14.74;65.28
69324;DHT22;56470;47.350;8.718;2023-04-30T02:21:16;14.71;65.25
69324;DHT22;56470;47.350;8.718;2023-04-30T02:23:42;14.70;65.61
69324;DHT22;56470;47.350;8.718;2023-04-30T02:26:07;14.71;65.73
69324;DHT22;56470;47.350;8.718;2023-04-30T02:28:32;14.59;65.98
69324;DHT22;56470;47.350;8.718;2023-04-30T02:30:58;14.56;66.11
69324;DHT22;56470;47.350;8.718;2023-04-30T02:33:23;14.57;66.41
69324;DHT22;56470;47.350;8.718;2023-04-30T02:35:48;14.60;65.93
69324;DHT22;56470;47.350;8.718;2023-04-30T02:38:14;14.60;66.07
69324;DHT22;56470;47.350;8.718;2023-04-30T02:40:40;14.56;66.02
69324;DHT22;56470;47.350;8.718;2023-04-30T02:43:06;14.56;66.05
69324;DHT22;56470;47.350;8.718;2023-04-30T02:45:32;14.56;66.16
69324;DHT22;56470;47.350;8.718;2023-04-30T02:47:57;14.49;66.61
69324;DHT22;56470;47.350;8.718;2023-04-30T02:50:22;14.39;66.63
69324;DHT22;56470;47.350;8.718;2023-04-30T02:52:48;14.34;67.23
69324;DHT22;56470;47.350;8.718;2023-04-30T02:55:13;14.22;67.29
69324;DHT22;56470;47.350;8.718;2023-04-30T02:57:39;14.16;67.20
69324;DHT22;56470;47.350;8.718;2023-04-30T03:00:04;14.15;67.52
69324;DHT22;56470;47.350;8.718;2023-04-30T03:02:31;14.19;67.46
69324;DHT22;56470;47.350;8.718;2023-04-30T03:04:56;14.19;67.80
69324;DHT22;56470;47.350;8.718;2023-04-30T03:07:21;14.28;67.48
69324;DHT22;56470;47.350;8.718;2023-04-30T03:09:47;14.25;67.15
69324;DHT22;56470;47.350;8.718;2023-04-30T03:12:12;14.28;67.64
69324;DHT22;56470;47.350;8.718;2023-04-30T03:14:39;14.37;67.61
69324;DHT22;56470;47.350;8.718;2023-04-30T03:17:04;14.40;67.12
69324;DHT22;56470;47.350;8.718;2023-04-30T03:19:29;14.46;67.39
69324;DHT22;56470;47.350;8.718;2023-04-30T03:21:55;14.53;67.09
69324;DHT22;56470;47.350;8.718;2023-04-30T03:24:20;14.60;67.24
69324;DHT22;56470;47.350;8.718;2023-04-30T03:26:46;14.67;67.16
69324;DHT22;56470;47.350;8.718;2023-04-30T03:29:11;14.73;67.16
69324;DHT22;56470;47.350;8.718;2023-04-30T03:31:37;14.77;67.07
69324;DHT22;56470;47.350;8.718;2023-04-30T03:34:02;14.83;66.96
69324;DHT22;56470;47.350;8.718;2023-04-30T03:36:27;14.88;66.65
69324;DHT22;56470;47.350;8.718;2023-04-30T03:38:53;14.80;66.85
69324;DHT22;56470;47.350;8.718;2023-04-30T03:41:18;14.83;66.94
69324;DHT22;56470;47.350;8.718;2023-04-30T03:43:43;14.91;66.98
69324;DHT22;56470;47.350;8.718;2023-04-30T03:46:09;14.96;66.77
69324;DHT22;56470;47.350;8.718;2023-04-30T03:48:34;14.92;66.55
69324;DHT22;56470;47.350;8.718;2023-04-30T03:50:59;14.74;66.49
69324;DHT22;56470;47.350;8.718;2023-04-30T03:53:25;14.73;67.06
69324;DHT22;56470;47.350;8.718;2023-04-30T03:55:51;14.75;67.11
69324;DHT22;56470;47.350;8.718;2023-04-30T03:58:17;14.78;66.99
69324;DHT22;56470;47.350;8.718;2023-04-30T04:00:42;14.83;66.91
69324;DHT22;56470;47.350;8.718;2023-04-30T04:03:10;14.85;66.92
69324;DHT22;56470;47.350;8.718;2023-04-30T04:05:35;14.88;66.96
69324;DHT22;56470;47.350;8.718;2023-04-30T04:08:01;14.91;67.00
69324;DHT22;56470;47.350;8.718;2023-04-30T04:10:26;14.96;66.83
69324;DHT22;56470;47.350;8.718;2023-04-30T04:12:51;14.98;66.79
69324;DHT22;56470;47.350;8.718;2023-04-30T04:15:17;15.03;66.71
69324;DHT22;56470;47.350;8.718;2023-04-30T04:17:42;15.05;66.67
69324;DHT22;56470;47.350;8.718;2023-04-30T04:20:08;15.11;66.61
69324;DHT22;56470;47.350;8.718;2023-04-30T04:22:33;15.15;66.54
69324;DHT22;56470;47.350;8.718;2023-04-30T04:24:59;15.18;66.50
69324;DHT22;56470;47.350;8.718;2023-04-30T04:27:24;15.22;66.48
69324;DHT22;56470;47.350;8.718;2023-04-30T04:29:49;15.23;66.41
69324;DHT22;56470;47.350;8.718;2023-04-30T04:32:15;15.28;66.36
69324;DHT22;56470;47.350;8.718;2023-04-30T04:34:40;15.30;66.26
69324;DHT22;56470;47.350;8.718;2023-04-30T04:37:07;15.29;66.18
69324;DHT22;56470;47.350;8.718;2023-04-30T04:39:32;15.30;66.20
69324;DHT22;56470;47.350;8.718;2023-04-30T04:41:59;15.33;66.14
69324;DHT22;56470;47.350;8.718;2023-04-30T04:44:25;15.35;66.13
69324;DHT22;56470;47.350;8.718;2023-04-30T04:46:51;15.33;66.07
69324;DHT22;56470;47.350;8.718;2023-04-30T04:49:18;15.35;66.06
69324;DHT22;56470;47.350;8.718;2023-04-30T04:51:43;15.25;65.95
69324;DHT22;56470;47.350;8.718;2023-04-30T04:54:08;15.16;66.09
69324;DHT22;56470;47.350;8.718;2023-04-30T04:56:34;15.08;66.09
69324;DHT22;56470;47.350;8.718;2023-04-30T04:59:00;15.03;66.36
69324;DHT22;56470;47.350;8.718;2023-04-30T05:01:25;15.01;66.41
69324;DHT22;56470;47.350;8.718;2023-04-30T05:03:51;14.95;66.52
69324;DHT22;56470;47.350;8.718;2023-04-30T05:06:17;14.84;66.52
69324;DHT22;56470;47.350;8.718;2023-04-30T05:08:43;14.73;66.89
69324;DHT22;56470;47.350;8.718;2023-04-30T05:11:08;14.73;66.89
69324;DHT22;56470;47.350;8.718;2023-04-30T05:13:34;14.57;67.04
69324;DHT22;56470;47.350;8.718;2023-04-30T05:16:00;14.49;67.12
69324;DHT22;56470;47.350;8.718;2023-04-30T05:18:25;14.44;67.27
69324;DHT22;56470;47.350;8.718;2023-04-30T05:20:50;14.40;67.52
69324;DHT22;56470;47.350;8.718;2023-04-30T05:23:16;14.32;67.59
69324;DHT22;56470;47.350;8.718;2023-04-30T05:25:41;14.25;67.91
69324;DHT22;56470;47.350;8.718;2023-04-30T05:28:06;14.19;67.63
69324;DHT22;56470;47.350;8.718;2023-04-30T05:30:32;14.16;67.75
69324;DHT22;56470;47.350;8.718;2023-04-30T05:32:57;14.16;68.25
69324;DHT22;56470;47.350;8.718;2023-04-30T05:35:22;14.13;68.24
69324;DHT22;56470;47.350;8.718;2023-04-30T05:37:48;14.13;68.21
69324;DHT22;56470;47.350;8.718;2023-04-30T05:40:14;14.09;68.31
69324;DHT22;56470;47.350;8.718;2023-04-30T05:42:40;14.13;67.87
69324;DHT22;56470;47.350;8.718;2023-04-30T05:45:08;14.00;68.10
69324;DHT22;56470;47.350;8.718;2023-04-30T05:47:33;13.84;68.34
69324;DHT22;56470;47.350;8.718;2023-04-30T05:50:01;13.73;68.83
69324;DHT22;56470;47.350;8.718;2023-04-30T05:52:26;13.73;69.33
69324;DHT22;56470;47.350;8.718;2023-04-30T05:54:51;13.63;69.32
69324;DHT22;56470;47.350;8.718;2023-04-30T05:57:18;13.50;69.87
69324;DHT22;56470;47.350;8.718;2023-04-30T05:59:43;13.56;70.14
69324;DHT22;56470;47.350;8.718;2023-04-30T06:02:08;13.64;69.87
69324;DHT22;56470;47.350;8.718;2023-04-30T06:04:34;13.73;69.87
69324;DHT22;56470;47.350;8.718;2023-04-30T06:06:59;13.77;69.65
69324;DHT22;56470;47.350;8.718;2023-04-30T06:09:24;13.81;69.78
69324;DHT22;56470;47.350;8.718;2023-04-30T06:11:50;13.92;69.78
69324;DHT22;56470;47.350;8.718;2023-04-30T06:14:17;14.05;69.56
69324;DHT22;56470;47.350;8.718;2023-04-30T06:16:43;14.02;69.69
69324;DHT22;56470;47.350;8.718;2023-04-30T06:19:09;13.91;69.10
69324;DHT22;56470;47.350;8.718;2023-04-30T06:21:34;13.68;69.96
69324;DHT22;56470;47.350;8.718;2023-04-30T06:24:00;13.66;69.64
69324;DHT22;56470;47.350;8.718;2023-04-30T06:26:26;13.61;70.01
69324;DHT22;56470;47.350;8.718;2023-04-30T06:28:51;13.54;70.62
69324;DHT22;56470;47.350;8.718;2023-04-30T06:31:16;13.56;70.76
69324;DHT22;56470;47.350;8.718;2023-04-30T06:33:42;13.54;70.01
69324;DHT22;56470;47.350;8.718;2023-04-30T06:36:07;13.57;70.44
69324;DHT22;56470;47.350;8.718;2023-04-30T06:38:32;13.50;70.86
69324;DHT22;56470;47.350;8.718;2023-04-30T06:40:58;13.35;71.11
69324;DHT22;56470;47.350;8.718;2023-04-30T06:43:23;13.29;71.86
69324;DHT22;56470;47.350;8.718;2023-04-30T06:45:48;13.27;71.17
69324;DHT22;56470;47.350;8.718;2023-04-30T06:48:14;13.40;70.96
69324;DHT22;56470;47.350;8.718;2023-04-30T06:50:39;13.44;70.93
69324;DHT22;56470;47.350;8.718;2023-04-30T06:53:10;13.50;70.63
69324;DHT22;56470;47.350;8.718;2023-04-30T06:55:35;13.50;70.92
69324;DHT22;56470;47.350;8.718;2023-04-30T06:58:01;13.40;71.28
69324;DHT22;56470;47.350;8.718;2023-04-30T07:00:26;13.32;71.38
69324;DHT22;56470;47.350;8.718;2023-04-30T07:02:52;13.29;71.47
69324;DHT22;56470;47.350;8.718;2023-04-30T07:05:17;13.35;71.49
69324;DHT22;56470;47.350;8.718;2023-04-30T07:07:43;13.38;71.65
69324;DHT22;56470;47.350;8.718;2023-04-30T07:10:08;13.38;71.76
69324;DHT22;56470;47.350;8.718;2023-04-30T07:12:34;13.42;71.35
69324;DHT22;56470;47.350;8.718;2023-04-30T07:14:59;13.50;71.06
69324;DHT22;56470;47.350;8.718;2023-04-30T07:17:24;13.50;71.22
69324;DHT22;56470;47.350;8.718;2023-04-30T07:19:50;13.56;71.41
69324;DHT22;56470;47.350;8.718;2023-04-30T07:22:15;13.75;71.01
69324;DHT22;56470;47.350;8.718;2023-04-30T07:24:40;13.88;70.80
69324;DHT22;56470;47.350;8.718;2023-04-30T07:27:05;13.87;70.53
69324;DHT22;56470;47.350;8.718;2023-04-30T07:29:32;13.92;70.20
69324;DHT22;56470;47.350;8.718;2023-04-30T07:31:57;13.97;70.49
69324;DHT22;56470;47.350;8.718;2023-04-30T07:34:23;14.18;70.43
69324;DHT22;56470;47.350;8.718;2023-04-30T07:36:48;14.39;69.72
69324;DHT22;56470;47.350;8.718;2023-04-30T07:39:14;14.60;69.44
69324;DHT22;56470;47.350;8.718;2023-04-30T07:41:39;14.85;68.70
69324;DHT22;56470;47.350;8.718;2023-04-30T07:44:05;14.87;67.98
69324;DHT22;56470;47.350;8.718;2023-04-30T07:46:30;14.81;68.13
69324;DHT22;56470;47.350;8.718;2023-04-30T07:48:56;14.80;68.23
69324;DHT22;56470;47.350;8.718;2023-04-30T07:51:21;14.71;68.10
69324;DHT22;56470;47.350;8.718;2023-04-30T07:53:46;14.71;68.35
69324;DHT22;56470;47.350;8.718;2023-04-30T07:56:12;14.75;68.16
69324;DHT22;56470;47.350;8.718;2023-04-30T07:58:37;14.70;68.24
69324;DHT22;56470;47.350;8.718;2023-04-30T08:01:02;14.75;68.57
69324;DHT22;56470;47.350;8.718;2023-04-30T08:03:28;14.89;68.42
69324;DHT22;56470;47.350;8.718;2023-04-30T08:05:53;15.06;67.90
69324;DHT22;56470;47.350;8.718;2023-04-30T08:08:18;15.06;67.89
69324;DHT22;56470;47.350;8.718;2023-04-30T08:10:44;15.13;67.94
69324;DHT22;56470;47.350;8.718;2023-04-30T08:13:09;15.16;67.55
69324;DHT22;56470;47.350;8.718;2023-04-30T08:15:35;15.29;67.57
69324;DHT22;56470;47.350;8.718;2023-04-30T08:18:01;15.43;67.46
69324;DHT22;56470;47.350;8.718;2023-04-30T08:20:26;15.56;67.22
69324;DHT22;56470;47.350;8.718;2023-04-30T08:22:52;15.77;66.89
69324;DHT22;56470;47.350;8.718;2023-04-30T08:25:17;15.98;66.31
69324;DHT22;56470;47.350;8.718;2023-04-30T08:27:42;16.22;66.19
69324;DHT22;56470;47.350;8.718;2023-04-30T08:30:08;16.34;64.14
69324;DHT22;56470;47.350;8.718;2023-04-30T08:32:34;16.04;64.79
69324;DHT22;56470;47.350;8.718;2023-04-30T08:35:04;15.88;64.88
69324;DHT22;56470;47.350;8.718;2023-04-30T08:37:29;15.82;65.33
69324;DHT22;56470;47.350;8.718;2023-04-30T08:39:55;15.81;64.83
69324;DHT22;56470;47.350;8.718;2023-04-30T08:42:24;15.85;65.77
69324;DHT22;56470;47.350;8.718;2023-04-30T08:44:49;15.97;65.67
69324;DHT22;56470;47.350;8.718;2023-04-30T08:47:15;16.12;65.35
69324;DHT22;56470;47.350;8.718;2023-04-30T08:49:42;16.29;65.64
69324;DHT22;56470;47.350;8.718;2023-04-30T08:52:07;16.49;65.17
69324;DHT22;56470;47.350;8.718;2023-04-30T08:54:35;16.70;65.00
69324;DHT22;56470;47.350;8.718;2023-04-30T08:57:00;16.78;64.25
69324;DHT22;56470;47.350;8.718;2023-04-30T08:59:26;16.80;63.97
69324;DHT22;56470;47.350;8.718;2023-04-30T09:01:51;16.70;63.38
69324;DHT22;56470;47.350;8.718;2023-04-30T09:04:16;16.60;63.77
69324;DHT22;56470;47.350;8.718;2023-04-30T09:06:42;16.43;63.23
69324;DHT22;56470;47.350;8.718;2023-04-30T09:09:10;16.25;63.55
69324;DHT22;56470;47.350;8.718;2023-04-30T09:11:36;16.20;64.23
69324;DHT22;56470;47.350;8.718;2023-04-30T09:14:01;16.25;63.91
69324;DHT22;56470;47.350;8.718;2023-04-30T09:16:29;16.32;63.96
69324;DHT22;56470;47.350;8.718;2023-04-30T09:18:58;16.37;63.72
69324;DHT22;56470;47.350;8.718;2023-04-30T09:21:33;16.37;63.53
69324;DHT22;56470;47.350;8.718;2023-04-30T09:24:01;16.13;63.31
69324;DHT22;56470;47.350;8.718;2023-04-30T09:26:31;15.91;63.94
69324;DHT22;56470;47.350;8.718;2023-04-30T09:28:57;15.95;64.39
69324;DHT22;56470;47.350;8.718;2023-04-30T09:31:23;15.92;64.25
69324;DHT22;56470;47.350;8.718;2023-04-30T09:33:49;15.84;64.14
69324;DHT22;56470;47.350;8.718;2023-04-30T09:36:14;15.94;64.40
69324;DHT22;56470;47.350;8.718;2023-04-30T09:38:40;16.04;64.32
69324;DHT22;56470;47.350;8.718;2023-04-30T09:41:05;16.18;64.30
69324;DHT22;56470;47.350;8.718;2023-04-30T09:43:32;16.30;64.18
69324;DHT22;56470;47.350;8.718;2023-04-30T09:45:58;16.44;63.75
69324;DHT22;56470;47.350;8.718;2023-04-30T09:48:24;16.49;63.23
69324;DHT22;56470;47.350;8.718;2023-04-30T09:50:52;16.54;63.27
69324;DHT22;56470;47.350;8.718;2023-04-30T09:53:18;16.68;63.43
69324;DHT22;56470;47.350;8.718;2023-04-30T09:55:46;16.89;62.74
69324;DHT22;56470;47.350;8.718;2023-04-30T09:58:12;16.99;62.35
69324;DHT22;56470;47.350;8.718;2023-04-30T10:00:38;17.04;62.59
69324;DHT22;56470;47.350;8.718;2023-04-30T10:03:08;17.15;62.60
69324;DHT22;56470;47.350;8.718;2023-04-30T10:05:40;17.33;62.26
69324;DHT22;56470;47.350;8.718;2023-04-30T10:08:18;17.44;62.08
69324;DHT22;56470;47.350;8.718;2023-04-30T10:10:49;17.53;62.19
69324;DHT22;56470;47.350;8.718;2023-04-30T10:13:18;17.55;62.18
69324;DHT22;56470;47.350;8.718;2023-04-30T10:15:50;17.68;61.64
69324;DHT22;56470;47.350;8.718;2023-04-30T10:18:19;17.77;61.06
69324;DHT22;56470;47.350;8.718;2023-04-30T10:20:47;17.75;61.09
69324;DHT22;56470;47.350;8.718;2023-04-30T10:23:14;17.74;60.84
69324;DHT22;56470;47.350;8.718;2023-04-30T10:25:40;17.71;60.59
69324;DHT22;56470;47.350;8.718;2023-04-30T10:28:07;17.68;60.44
69324;DHT22;56470;47.350;8.718;2023-04-30T10:30:34;17.50;59.47
69324;DHT22;56470;47.350;8.718;2023-04-30T10:33:18;17.30;60.20
69324;DHT22;56470;47.350;8.718;2023-04-30T10:35:56;17.30;60.42
69324;DHT22;56470;47.350;8.718;2023-04-30T10:38:25;17.47;60.92
69324;DHT22;56470;47.350;8.718;2023-04-30T10:40:54;17.59;60.23
69324;DHT22;56470;47.350;8.718;2023-04-30T10:43:23;17.61;60.22
69324;DHT22;56470;47.350;8.718;2023-04-30T10:45:48;17.70;60.13
69324;DHT22;56470;47.350;8.718;2023-04-30T10:48:15;17.64;58.89
69324;DHT22;56470;47.350;8.718;2023-04-30T10:50:42;17.42;59.34
69324;DHT22;56470;47.350;8.718;2023-04-30T10:53:12;17.37;59.76
69324;DHT22;56470;47.350;8.718;2023-04-30T10:55:47;17.47;59.15
69324;DHT22;56470;47.350;8.718;2023-04-30T11:00:50;17.67;59.15
69324;DHT22;56470;47.350;8.718;2023-04-30T11:03:24;17.73;59.31
69324;DHT22;56470;47.350;8.718;2023-04-30T11:05:49;17.71;58.76
69324;DHT22;56470;47.350;8.718;2023-04-30T11:08:14;17.59;58.89
69324;DHT22;56470;47.350;8.718;2023-04-30T11:10:55;17.55;58.76
69324;DHT22;56470;47.350;8.718;2023-04-30T11:13:21;17.57;59.50
69324;DHT22;56470;47.350;8.718;2023-04-30T11:15:46;17.66;59.45
69324;DHT22;56470;47.350;8.718;2023-04-30T11:18:12;17.59;59.08
69324;DHT22;56470;47.350;8.718;2023-04-30T11:20:48;17.51;59.10
69324;DHT22;56470;47.350;8.718;2023-04-30T11:23:16;17.57;58.95
69324;DHT22;56470;47.350;8.718;2023-04-30T11:25:45;17.61;59.27
69324;DHT22;56470;47.350;8.718;2023-04-30T11:28:13;17.59;59.27
69324;DHT22;56470;47.350;8.718;2023-04-30T11:30:49;17.57;59.15
69324;DHT22;56470;47.350;8.718;2023-04-30T11:33:15;17.63;59.11
69324;DHT22;56470;47.350;8.718;2023-04-30T11:35:41;17.53;59.26
69324;DHT22;56470;47.350;8.718;2023-04-30T11:38:07;17.51;58.97
69324;DHT22;56470;47.350;8.718;2023-04-30T11:40:34;17.44;58.71
69324;DHT22;56470;47.350;8.718;2023-04-30T11:43:00;17.53;59.08
69324;DHT22;56470;47.350;8.718;2023-04-30T11:45:25;17.57;58.79
69324;DHT22;56470;47.350;8.718;2023-04-30T11:47:53;17.61;58.41
69324;DHT22;56470;47.350;8.718;2023-04-30T11:50:20;17.61;58.82
69324;DHT22;56470;47.350;8.718;2023-04-30T11:52:52;17.67;58.56
69324;DHT22;56470;47.350;8.718;2023-04-30T11:55:19;17.71;58.56
69324;DHT22;56470;47.350;8.718;2023-04-30T11:57:47;17.74;58.12
69324;DHT22;56470;47.350;8.718;2023-04-30T12:02:44;17.73;57.47
69324;DHT22;56470;47.350;8.718;2023-04-30T12:05:13;17.77;57.92
69324;DHT22;56470;47.350;8.718;2023-04-30T12:08:02;17.71;56.78
69324;DHT22;56470;47.350;8.718;2023-04-30T12:10:30;17.71;57.88
69324;DHT22;56470;47.350;8.718;2023-04-30T12:12:55;17.74;57.69
69324;DHT22;56470;47.350;8.718;2023-04-30T12:15:22;17.70;58.04
69324;DHT22;56470;47.350;8.718;2023-04-30T12:17:51;17.75;57.97
69324;DHT22;56470;47.350;8.718;2023-04-30T12:20:17;17.75;57.66
69324;DHT22;56470;47.350;8.718;2023-04-30T12:22:44;17.74;57.31
69324;DHT22;56470;47.350;8.718;2023-04-30T12:25:14;17.61;57.22
69324;DHT22;56470;47.350;8.718;2023-04-30T12:27:50;17.53;57.12
69324;DHT22;56470;47.350;8.718;2023-04-30T12:30:21;17.43;57.75
69324;DHT22;56470;47.350;8.718;2023-04-30T12:32:49;17.32;57.69
69324;DHT22;56470;47.350;8.718;2023-04-30T12:35:17;17.29;58.06
69324;DHT22;56470;47.350;8.718;2023-04-30T12:37:50;17.32;57.90
69324;DHT22;56470;47.350;8.718;2023-04-30T12:40:19;17.39;58.20
69324;DHT22;56470;47.350;8.718;2023-04-30T12:42:45;17.47;58.38
69324;DHT22;56470;47.350;8.718;2023-04-30T12:45:12;17.57;58.28
69324;DHT22;56470;47.350;8.718;2023-04-30T12:47:41;17.68;58.01
69324;DHT22;56470;47.350;8.718;2023-04-30T12:50:10;17.67;57.64
69324;DHT22;56470;47.350;8.718;2023-04-30T12:52:37;17.67;57.82
69324;DHT22;56470;47.350;8.718;2023-04-30T12:55:21;17.55;57.19
69324;DHT22;56470;47.350;8.718;2023-04-30T12:58:02;17.42;57.55
69324;DHT22;56470;47.350;8.718;2023-04-30T13:00:40;17.34;57.84
69324;DHT22;56470;47.350;8.718;2023-04-30T13:03:06;17.36;57.97
69324;DHT22;56470;47.350;8.718;2023-04-30T13:05:32;17.30;57.56
69324;DHT22;56470;47.350;8.718;2023-04-30T13:08:01;17.25;58.13
69324;DHT22;56470;47.350;8.718;2023-04-30T13:10:27;17.36;58.03
69324;DHT22;56470;47.350;8.718;2023-04-30T13:12:53;17.42;57.79
69324;DHT22;56470;47.350;8.718;2023-04-30T13:15:18;17.40;57.97
69324;DHT22;56470;47.350;8.718;2023-04-30T13:17:43;17.47;58.05
69324;DHT22;56470;47.350;8.718;2023-04-30T13:20:09;17.50;57.26
69324;DHT22;56470;47.350;8.718;2023-04-30T13:22:34;17.44;57.56
69324;DHT22;56470;47.350;8.718;2023-04-30T13:25:00;17.43;57.80
69324;DHT22;56470;47.350;8.718;2023-04-30T13:27:25;17.40;57.74
69324;DHT22;56470;47.350;8.718;2023-04-30T13:29:50;17.44;57.99
69324;DHT22;56470;47.350;8.718;2023-04-30T13:32:16;17.49;57.68
69324;DHT22;56470;47.350;8.718;2023-04-30T13:34:41;17.54;57.24
69324;DHT22;56470;47.350;8.718;2023-04-30T13:37:06;17.49;57.70
69324;DHT22;56470;47.350;8.718;2023-04-30T13:39:32;17.54;57.63
69324;DHT22;56470;47.350;8.718;2023-04-30T13:41:57;17.47;57.44
69324;DHT22;56470;47.350;8.718;2023-04-30T13:44:23;17.46;57.81
69324;DHT22;56470;47.350;8.718;2023-04-30T13:46:48;17.47;57.67
69324;DHT22;56470;47.350;8.718;2023-04-30T13:49:14;17.44;57.11
69324;DHT22;56470;47.350;8.718;2023-04-30T13:51:40;17.33;57.24
69324;DHT22;56470;47.350;8.718;2023-04-30T13:54:05;17.32;57.81
69324;DHT22;56470;47.350;8.718;2023-04-30T13:56:30;17.36;57.89
69324;DHT22;56470;47.350;8.718;2023-04-30T13:58:56;17.30;57.85
69324;DHT22;56470;47.350;8.718;2023-04-30T14:01:21;17.34;57.78
69324;DHT22;56470;47.350;8.718;2023-04-30T14:03:46;17.27;57.59
69324;DHT22;56470;47.350;8.718;2023-04-30T14:06:12;17.23;57.77
69324;DHT22;56470;47.350;8.718;2023-04-30T14:08:37;17.23;58.13
69324;DHT22;56470;47.350;8.718;2023-04-30T14:11:03;17.26;58.39
69324;DHT22;56470;47.350;8.718;2023-04-30T14:13:28;17.33;58.52
69324;DHT22;56470;47.350;8.718;2023-04-30T14:15:53;17.43;58.56
69324;DHT22;56470;47.350;8.718;2023-04-30T14:18:20;17.53;58.54
69324;DHT22;56470;47.350;8.718;2023-04-30T14:20:47;17.59;58.34
69324;DHT22;56470;47.350;8.718;2023-04-30T14:23:12;17.64;58.04
69324;DHT22;56470;47.350;8.718;2023-04-30T14:25:37;17.53;57.98
69324;DHT22;56470;47.350;8.718;2023-04-30T14:28:05;17.51;57.78
69324;DHT22;56470;47.350;8.718;2023-04-30T14:30:30;17.47;57.65
69324;DHT22;56470;47.350;8.718;2023-04-30T14:32:56;17.42;57.68
69324;DHT22;56470;47.350;8.718;2023-04-30T14:35:21;17.39;58.02
69324;DHT22;56470;47.350;8.718;2023-04-30T14:37:47;17.40;57.96
69324;DHT22;56470;47.350;8.718;2023-04-30T14:40:12;17.36;57.62
69324;DHT22;56470;47.350;8.718;2023-04-30T14:42:38;17.25;57.85
69324;DHT22;56470;47.350;8.718;2023-04-30T14:45:04;17.26;58.13
69324;DHT22;56470;47.350;8.718;2023-04-30T14:47:29;17.32;58.16
69324;DHT22;56470;47.350;8.718;2023-04-30T14:49:55;17.33;58.14
69324;DHT22;56470;47.350;8.718;2023-04-30T14:52:23;17.36;58.15
69324;DHT22;56470;47.350;8.718;2023-04-30T14:54:48;17.37;57.97
69324;DHT22;56470;47.350;8.718;2023-04-30T14:57:13;17.42;58.04
69324;DHT22;56470;47.350;8.718;2023-04-30T14:59:39;17.43;58.12
69324;DHT22;56470;47.350;8.718;2023-04-30T15:02:06;17.44;58.04
69324;DHT22;56470;47.350;8.718;2023-04-30T15:04:31;17.43;58.09
69324;DHT22;56470;47.350;8.718;2023-04-30T15:06:56;17.43;57.87
69324;DHT22;56470;47.350;8.718;2023-04-30T15:09:21;17.42;57.86
69324;DHT22;56470;47.350;8.718;2023-04-30T15:11:47;17.39;57.97
69324;DHT22;56470;47.350;8.718;2023-04-30T15:14:12;17.43;58.14
69324;DHT22;56470;47.350;8.718;2023-04-30T15:16:38;17.44;58.17
69324;DHT22;56470;47.350;8.718;2023-04-30T15:19:04;17.49;57.85
69324;DHT22;56470;47.350;8.718;2023-04-30T15:21:29;17.44;57.49
69324;DHT22;56470;47.350;8.718;2023-04-30T15:23:54;17.32;57.72
69324;DHT22;56470;47.350;8.718;2023-04-30T15:26:20;17.26;57.63
69324;DHT22;56470;47.350;8.718;2023-04-30T15:28:45;17.27;57.85
69324;DHT22;56470;47.350;8.718;2023-04-30T15:31:10;17.32;57.85
69324;DHT22;56470;47.350;8.718;2023-04-30T15:33:35;17.32;58.04
69324;DHT22;56470;47.350;8.718;2023-04-30T15:36:06;17.36;58.11
69324;DHT22;56470;47.350;8.718;2023-04-30T15:38:31;17.44;58.02
69324;DHT22;56470;47.350;8.718;2023-04-30T15:40:56;17.46;58.03
69324;DHT22;56470;47.350;8.718;2023-04-30T15:43:22;17.51;58.02
69324;DHT22;56470;47.350;8.718;2023-04-30T15:45:47;17.54;57.93
69324;DHT22;56470;47.350;8.718;2023-04-30T15:48:13;17.59;57.96
69324;DHT22;56470;47.350;8.718;2023-04-30T15:50:38;17.64;58.05